sensor_id;sensor_type;location;lat;lon;timestamp;temperature;humidity
44775;DHT22;31340;51.402;0.016;2023-06-10T00:00:04;19.60;90.90
44775;DHT22;31340;51.402;0.016;2023-06-10T00:02:40;19.50;91.00
44775;DHT22;31340;51.402;0.016;2023-06-10T00:05:08;19.50;91.00
44775;DHT22;31340;51.402;0.016;2023-06-10T00:07:37;19.50;91.10
44775;DHT22;31340;51.402;0.016;2023-06-10T00:10:06;19.50;91.10
44775;DHT22;31340;51.402;0.016;2023-06-10T00:12:34;19.50;91.10
44775;DHT22;31340;51.402;0.016;2023-06-10T00:15:06;19.40;91.10
44775;DHT22;31340;51.402;0.016;2023-06-10T00:17:35;19.40;91.50
44775;DHT22;31340;51.402;0.016;2023-06-10T00:20:08;19.40;91.20
44775;DHT22;31340;51.402;0.016;2023-06-10T00:22:38;19.40;91.20
44775;DHT22;31340;51.402;0.016;2023-06-10T00:25:07;19.30;91.20
44775;DHT22;31340;51.402;0.016;2023-06-10T00:27:35;19.30;91.30
44775;DHT22;31340;51.402;0.016;2023-06-10T00:30:04;19.30;91.40
44775;DHT22;31340;51.402;0.016;2023-06-10T00:32:35;19.30;91.40
44775;DHT22;31340;51.402;0.016;2023-06-10T00:35:04;19.30;91.40
44775;DHT22;31340;51.402;0.016;2023-06-10T00:37:33;19.20;91.50
44775;DHT22;31340;51.402;0.016;2023-06-10T00:40:04;19.20;91.50
44775;DHT22;31340;51.402;0.016;2023-06-10T00:42:32;19.20;91.60
44775;DHT22;31340;51.402;0.016;2023-06-10T00:45:00;19.20;91.60
44775;DHT22;31340;51.402;0.016;2023-06-10T00:47:29;19.20;91.70
44775;DHT22;31340;51.402;0.016;2023-06-10T00:49:58;19.20;91.70
44775;DHT22;31340;51.402;0.016;2023-06-10T00:52:28;19.20;91.70
44775;DHT22;31340;51.402;0.016;2023-06-10T00:54:56;19.10;91.80
44775;DHT22;31340;51.402;0.016;2023-06-10T00:57:24;19.10;91.80
44775;DHT22;31340;51.402;0.016;2023-06-10T00:59:53;19.10;91.90
44775;DHT22;31340;51.402;0.016;2023-06-10T01:02:21;19.10;91.90
44775;DHT22;31340;51.402;0.016;2023-06-10T01:04:50;19.10;92.00
44775;DHT22;31340;51.402;0.016;2023-06-10T01:07:30;19.10;92.00
44775;DHT22;31340;51.402;0.016;2023-06-10T01:10:05;19.10;92.10
44775;DHT22;31340;51.402;0.016;2023-06-10T01:12:41;19.00;92.10
44775;DHT22;31340;51.402;0.016;2023-06-10T01:15:17;19.00;92.10
44775;DHT22;31340;51.402;0.016;2023-06-10T01:18:03;18.90;92.10
44775;DHT22;31340;51.402;0.016;2023-06-10T01:20:32;18.90;92.20
44775;DHT22;31340;51.402;0.016;2023-06-10T01:23:01;18.90;92.10
44775;DHT22;31340;51.402;0.016;2023-06-10T01:25:31;18.90;92.20
44775;DHT22;31340;51.402;0.016;2023-06-10T01:28:14;18.90;92.20
44775;DHT22;31340;51.402;0.016;2023-06-10T01:31:18;18.80;92.30
44775;DHT22;31340;51.402;0.016;2023-06-10T01:33:52;18.80;92.30
44775;DHT22;31340;51.402;0.016;2023-06-10T01:36:21;18.80;92.30
44775;DHT22;31340;51.402;0.016;2023-06-10T01:38:50;18.70;92.30
44775;DHT22;31340;51.402;0.016;2023-06-10T01:41:20;18.70;92.40
44775;DHT22;31340;51.402;0.016;2023-06-10T01:43:49;18.70;92.30
44775;DHT22;31340;51.402;0.016;2023-06-10T01:46:16;18.70;92.80
44775;DHT22;31340;51.402;0.016;2023-06-10T01:48:48;18.60;92.40
44775;DHT22;31340;51.402;0.016;2023-06-10T01:51:16;18.60;92.40
44775;DHT22;31340;51.402;0.016;2023-06-10T01:53:43;18.60;92.40
44775;DHT22;31340;51.402;0.016;2023-06-10T01:56:11;18.60;92.50
44775;DHT22;31340;51.402;0.016;2023-06-10T01:58:44;18.50;92.50
44775;DHT22;31340;51.402;0.016;2023-06-10T02:01:11;18.50;92.50
44775;DHT22;31340;51.402;0.016;2023-06-10T02:03:39;18.50;92.60
44775;DHT22;31340;51.402;0.016;2023-06-10T02:06:08;18.40;92.60
44775;DHT22;31340;51.402;0.016;2023-06-10T02:08:36;18.40;92.60
44775;DHT22;31340;51.402;0.016;2023-06-10T02:11:04;18.40;92.60
44775;DHT22;31340;51.402;0.016;2023-06-10T02:13:32;18.30;92.60
44775;DHT22;31340;51.402;0.016;2023-06-10T02:15:59;18.30;92.70
44775;DHT22;31340;51.402;0.016;2023-06-10T02:18:29;18.20;92.60
44775;DHT22;31340;51.402;0.016;2023-06-10T02:20:57;18.30;92.70
44775;DHT22;31340;51.402;0.016;2023-06-10T02:23:26;18.20;92.70
44775;DHT22;31340;51.402;0.016;2023-06-10T02:25:54;18.20;92.70
44775;DHT22;31340;51.402;0.016;2023-06-10T02:28:21;18.20;92.80
44775;DHT22;31340;51.402;0.016;2023-06-10T02:30:49;18.20;93.10
44775;DHT22;31340;51.402;0.016;2023-06-10T02:33:16;18.20;92.80
44775;DHT22;31340;51.402;0.016;2023-06-10T02:35:45;18.10;92.80
44775;DHT22;31340;51.402;0.016;2023-06-10T02:38:13;18.10;92.80
44775;DHT22;31340;51.402;0.016;2023-06-10T02:40:40;18.10;92.90
44775;DHT22;31340;51.402;0.016;2023-06-10T02:43:09;18.10;93.00
44775;DHT22;31340;51.402;0.016;2023-06-10T02:45:37;18.00;93.00
44775;DHT22;31340;51.402;0.016;2023-06-10T02:48:06;18.00;93.00
44775;DHT22;31340;51.402;0.016;2023-06-10T02:50:34;18.00;93.00
44775;DHT22;31340;51.402;0.016;2023-06-10T02:53:13;18.00;93.00
44775;DHT22;31340;51.402;0.016;2023-06-10T02:55:45;17.90;93.00
44775;DHT22;31340;51.402;0.016;2023-06-10T02:58:15;17.90;93.10
44775;DHT22;31340;51.402;0.016;2023-06-10T03:00:44;17.90;93.10
44775;DHT22;31340;51.402;0.016;2023-06-10T03:03:13;17.90;93.10
44775;DHT22;31340;51.402;0.016;2023-06-10T03:05:56;17.90;93.20
44775;DHT22;31340;51.402;0.016;2023-06-10T03:08:24;17.80;93.20
44775;DHT22;31340;51.402;0.016;2023-06-10T03:10:52;17.80;93.20
44775;DHT22;31340;51.402;0.016;2023-06-10T03:13:20;17.80;93.30
44775;DHT22;31340;51.402;0.016;2023-06-10T03:15:49;17.80;93.30
44775;DHT22;31340;51.402;0.016;2023-06-10T03:18:20;17.80;93.30
44775;DHT22;31340;51.402;0.016;2023-06-10T03:20:51;17.80;93.30
44775;DHT22;31340;51.402;0.016;2023-06-10T03:23:20;17.70;93.30
44775;DHT22;31340;51.402;0.016;2023-06-10T03:25:48;17.70;93.40
44775;DHT22;31340;51.402;0.016;2023-06-10T03:28:18;17.70;93.40
44775;DHT22;31340;51.402;0.016;2023-06-10T03:30:46;17.70;93.40
44775;DHT22;31340;51.402;0.016;2023-06-10T03:33:14;17.60;93.30
44775;DHT22;31340;51.402;0.016;2023-06-10T03:35:44;17.60;93.40
44775;DHT22;31340;51.402;0.016;2023-06-10T03:38:14;17.60;93.40
44775;DHT22;31340;51.402;0.016;2023-06-10T03:40:42;17.60;93.40
44775;DHT22;31340;51.402;0.016;2023-06-10T03:43:10;17.60;93.50
44775;DHT22;31340;51.402;0.016;2023-06-10T03:45:38;17.50;93.50
44775;DHT22;31340;51.402;0.016;2023-06-10T03:48:05;17.50;93.50
44775;DHT22;31340;51.402;0.016;2023-06-10T03:50:43;17.50;93.50
44775;DHT22;31340;51.402;0.016;2023-06-10T03:53:10;17.50;93.60
44775;DHT22;31340;51.402;0.016;2023-06-10T03:55:41;17.40;93.60
44775;DHT22;31340;51.402;0.016;2023-06-10T03:58:09;17.40;93.60
44775;DHT22;31340;51.402;0.016;2023-06-10T04:00:36;17.40;93.60
44775;DHT22;31340;51.402;0.016;2023-06-10T04:03:09;17.40;93.70
44775;DHT22;31340;51.402;0.016;2023-06-10T04:05:45;17.40;93.70
44775;DHT22;31340;51.402;0.016;2023-06-10T04:08:13;17.30;93.70
44775;DHT22;31340;51.402;0.016;2023-06-10T04:10:40;17.30;93.70
44775;DHT22;31340;51.402;0.016;2023-06-10T04:13:08;17.30;93.80
44775;DHT22;31340;51.402;0.016;2023-06-10T04:15:43;17.30;93.80
44775;DHT22;31340;51.402;0.016;2023-06-10T04:18:16;17.30;93.80
44775;DHT22;31340;51.402;0.016;2023-06-10T04:20:46;17.30;93.90
44775;DHT22;31340;51.402;0.016;2023-06-10T04:23:14;17.30;93.90
44775;DHT22;31340;51.402;0.016;2023-06-10T04:25:44;17.20;93.90
44775;DHT22;31340;51.402;0.016;2023-06-10T04:28:12;17.20;93.90
44775;DHT22;31340;51.402;0.016;2023-06-10T04:30:40;17.20;94.00
44775;DHT22;31340;51.402;0.016;2023-06-10T04:33:09;17.20;94.00
44775;DHT22;31340;51.402;0.016;2023-06-10T04:35:38;17.20;94.10
44775;DHT22;31340;51.402;0.016;2023-06-10T04:38:07;17.20;94.10
44775;DHT22;31340;51.402;0.016;2023-06-10T04:40:35;17.20;94.20
44775;DHT22;31340;51.402;0.016;2023-06-10T04:43:03;17.20;94.20
44775;DHT22;31340;51.402;0.016;2023-06-10T04:45:32;17.20;94.30
44775;DHT22;31340;51.402;0.016;2023-06-10T04:48:00;17.20;94.30
44775;DHT22;31340;51.402;0.016;2023-06-10T04:50:27;17.20;94.40
44775;DHT22;31340;51.402;0.016;2023-06-10T04:52:55;17.20;94.40
44775;DHT22;31340;51.402;0.016;2023-06-10T04:55:25;17.20;94.40
44775;DHT22;31340;51.402;0.016;2023-06-10T04:57:52;17.20;94.40
44775;DHT22;31340;51.402;0.016;2023-06-10T05:00:20;17.20;94.40
44775;DHT22;31340;51.402;0.016;2023-06-10T05:02:48;17.20;94.50
44775;DHT22;31340;51.402;0.016;2023-06-10T05:05:18;17.20;94.50
44775;DHT22;31340;51.402;0.016;2023-06-10T05:07:45;17.20;94.50
44775;DHT22;31340;51.402;0.016;2023-06-10T05:10:13;17.20;94.50
44775;DHT22;31340;51.402;0.016;2023-06-10T05:12:41;17.30;94.50
44775;DHT22;31340;51.402;0.016;2023-06-10T05:15:09;17.30;94.60
44775;DHT22;31340;51.402;0.016;2023-06-10T05:17:38;17.30;94.50
44775;DHT22;31340;51.402;0.016;2023-06-10T05:20:06;17.30;94.60
44775;DHT22;31340;51.402;0.016;2023-06-10T05:22:33;17.30;94.60
44775;DHT22;31340;51.402;0.016;2023-06-10T05:25:01;17.30;94.60
44775;DHT22;31340;51.402;0.016;2023-06-10T05:27:30;17.40;94.60
44775;DHT22;31340;51.402;0.016;2023-06-10T05:29:59;17.40;94.60
44775;DHT22;31340;51.402;0.016;2023-06-10T05:32:26;17.40;94.60
44775;DHT22;31340;51.402;0.016;2023-06-10T05:34:54;17.40;94.60
44775;DHT22;31340;51.402;0.016;2023-06-10T05:37:22;17.40;94.60
44775;DHT22;31340;51.402;0.016;2023-06-10T05:39:49;17.40;94.60
44775;DHT22;31340;51.402;0.016;2023-06-10T05:42:17;17.50;94.60
44775;DHT22;31340;51.402;0.016;2023-06-10T05:44:44;17.50;94.60
44775;DHT22;31340;51.402;0.016;2023-06-10T05:47:12;17.50;94.60
44775;DHT22;31340;51.402;0.016;2023-06-10T05:49:40;17.50;94.60
44775;DHT22;31340;51.402;0.016;2023-06-10T05:52:07;17.50;94.60
44775;DHT22;31340;51.402;0.016;2023-06-10T05:54:35;17.50;94.70
44775;DHT22;31340;51.402;0.016;2023-06-10T05:57:02;17.60;94.70
44775;DHT22;31340;51.402;0.016;2023-06-10T05:59:31;17.60;94.70
44775;DHT22;31340;51.402;0.016;2023-06-10T06:01:58;17.60;94.70
44775;DHT22;31340;51.402;0.016;2023-06-10T06:04:26;17.70;94.70
44775;DHT22;31340;51.402;0.016;2023-06-10T06:06:53;17.70;94.70
44775;DHT22;31340;51.402;0.016;2023-06-10T06:09:21;17.80;94.70
44775;DHT22;31340;51.402;0.016;2023-06-10T06:11:48;17.80;94.70
44775;DHT22;31340;51.402;0.016;2023-06-10T06:14:16;17.80;94.70
44775;DHT22;31340;51.402;0.016;2023-06-10T06:16:44;17.90;94.70
44775;DHT22;31340;51.402;0.016;2023-06-10T06:19:11;17.90;94.70
44775;DHT22;31340;51.402;0.016;2023-06-10T06:21:39;17.90;94.70
44775;DHT22;31340;51.402;0.016;2023-06-10T06:24:07;18.00;94.80
44775;DHT22;31340;51.402;0.016;2023-06-10T06:26:34;18.00;94.80
44775;DHT22;31340;51.402;0.016;2023-06-10T06:29:02;18.10;94.80
44775;DHT22;31340;51.402;0.016;2023-06-10T06:31:30;18.10;94.80
44775;DHT22;31340;51.402;0.016;2023-06-10T06:33:58;18.10;94.80
44775;DHT22;31340;51.402;0.016;2023-06-10T06:36:26;18.20;94.80
44775;DHT22;31340;51.402;0.016;2023-06-10T06:38:53;18.20;94.80
44775;DHT22;31340;51.402;0.016;2023-06-10T06:41:23;18.30;94.80
44775;DHT22;31340;51.402;0.016;2023-06-10T06:43:50;18.40;94.80
44775;DHT22;31340;51.402;0.016;2023-06-10T06:46:25;18.40;94.90
44775;DHT22;31340;51.402;0.016;2023-06-10T06:48:52;18.50;94.90
44775;DHT22;31340;51.402;0.016;2023-06-10T06:51:20;18.50;94.90
44775;DHT22;31340;51.402;0.016;2023-06-10T06:53:47;18.60;94.90
44775;DHT22;31340;51.402;0.016;2023-06-10T06:56:17;18.60;94.90
44775;DHT22;31340;51.402;0.016;2023-06-10T06:58:45;18.70;94.80
44775;DHT22;31340;51.402;0.016;2023-06-10T07:01:12;18.80;94.80
44775;DHT22;31340;51.402;0.016;2023-06-10T07:03:40;18.80;94.80
44775;DHT22;31340;51.402;0.016;2023-06-10T07:06:07;18.90;94.80
44775;DHT22;31340;51.402;0.016;2023-06-10T07:08:36;18.90;94.70
44775;DHT22;31340;51.402;0.016;2023-06-10T07:11:03;19.00;94.70
44775;DHT22;31340;51.402;0.016;2023-06-10T07:13:31;19.10;94.60
44775;DHT22;31340;51.402;0.016;2023-06-10T07:15:59;19.10;94.60
44775;DHT22;31340;51.402;0.016;2023-06-10T07:18:27;19.20;94.50
44775;DHT22;31340;51.402;0.016;2023-06-10T07:20:54;19.20;94.50
44775;DHT22;31340;51.402;0.016;2023-06-10T07:23:22;19.30;94.40
44775;DHT22;31340;51.402;0.016;2023-06-10T07:25:50;19.40;94.40
44775;DHT22;31340;51.402;0.016;2023-06-10T07:28:17;19.50;94.30
44775;DHT22;31340;51.402;0.016;2023-06-10T07:30:45;19.50;94.30
44775;DHT22;31340;51.402;0.016;2023-06-10T07:33:12;19.60;94.30
44775;DHT22;31340;51.402;0.016;2023-06-10T07:35:40;19.70;94.30
44775;DHT22;31340;51.402;0.016;2023-06-10T07:38:10;19.70;94.60
44775;DHT22;31340;51.402;0.016;2023-06-10T07:40:37;19.80;94.20
44775;DHT22;31340;51.402;0.016;2023-06-10T07:43:05;19.90;94.20
44775;DHT22;31340;51.402;0.016;2023-06-10T07:45:33;20.00;94.10
44775;DHT22;31340;51.402;0.016;2023-06-10T07:48:00;20.00;94.00
44775;DHT22;31340;51.402;0.016;2023-06-10T07:50:28;20.10;94.00
44775;DHT22;31340;51.402;0.016;2023-06-10T07:52:55;20.30;93.90
44775;DHT22;31340;51.402;0.016;2023-06-10T07:55:23;20.40;93.80
44775;DHT22;31340;51.402;0.016;2023-06-10T07:57:53;20.40;93.70
44775;DHT22;31340;51.402;0.016;2023-06-10T08:00:21;20.60;93.70
44775;DHT22;31340;51.402;0.016;2023-06-10T08:02:49;20.70;93.60
44775;DHT22;31340;51.402;0.016;2023-06-10T08:05:17;20.80;93.50
44775;DHT22;31340;51.402;0.016;2023-06-10T08:07:45;20.90;93.40
44775;DHT22;31340;51.402;0.016;2023-06-10T08:10:12;21.00;93.30
44775;DHT22;31340;51.402;0.016;2023-06-10T08:12:40;21.10;93.20
44775;DHT22;31340;51.402;0.016;2023-06-10T08:15:08;21.20;93.00
44775;DHT22;31340;51.402;0.016;2023-06-10T08:17:37;21.30;92.90
44775;DHT22;31340;51.402;0.016;2023-06-10T08:20:06;21.40;92.80
44775;DHT22;31340;51.402;0.016;2023-06-10T08:22:33;21.50;92.60
44775;DHT22;31340;51.402;0.016;2023-06-10T08:25:01;21.60;92.50
44775;DHT22;31340;51.402;0.016;2023-06-10T08:27:29;21.70;92.40
44775;DHT22;31340;51.402;0.016;2023-06-10T08:29:57;21.80;92.20
44775;DHT22;31340;51.402;0.016;2023-06-10T08:32:28;21.90;92.00
44775;DHT22;31340;51.402;0.016;2023-06-10T08:34:55;22.00;91.90
44775;DHT22;31340;51.402;0.016;2023-06-10T08:37:24;22.10;91.80
44775;DHT22;31340;51.402;0.016;2023-06-10T08:39:51;22.20;91.70
44775;DHT22;31340;51.402;0.016;2023-06-10T08:42:34;22.30;91.50
44775;DHT22;31340;51.402;0.016;2023-06-10T08:45:05;22.50;91.30
44775;DHT22;31340;51.402;0.016;2023-06-10T08:47:36;22.50;91.20
44775;DHT22;31340;51.402;0.016;2023-06-10T08:50:06;22.60;91.10
44775;DHT22;31340;51.402;0.016;2023-06-10T08:52:42;22.70;91.00
44775;DHT22;31340;51.402;0.016;2023-06-10T08:55:13;22.80;90.90
44775;DHT22;31340;51.402;0.016;2023-06-10T08:57:42;22.90;90.70
44775;DHT22;31340;51.402;0.016;2023-06-10T09:00:13;23.10;90.60
44775;DHT22;31340;51.402;0.016;2023-06-10T09:02:41;23.20;90.50
44775;DHT22;31340;51.402;0.016;2023-06-10T09:05:10;23.30;90.40
44775;DHT22;31340;51.402;0.016;2023-06-10T09:07:38;23.40;90.30
44775;DHT22;31340;51.402;0.016;2023-06-10T09:10:06;23.50;90.10
44775;DHT22;31340;51.402;0.016;2023-06-10T09:12:35;23.60;89.80
44775;DHT22;31340;51.402;0.016;2023-06-10T09:15:06;23.70;89.30
44775;DHT22;31340;51.402;0.016;2023-06-10T09:17:34;23.80;89.00
44775;DHT22;31340;51.402;0.016;2023-06-10T09:20:04;23.90;88.70
44775;DHT22;31340;51.402;0.016;2023-06-10T09:22:36;24.10;88.50
44775;DHT22;31340;51.402;0.016;2023-06-10T09:25:06;24.20;88.00
44775;DHT22;31340;51.402;0.016;2023-06-10T09:27:50;24.30;87.60
44775;DHT22;31340;51.402;0.016;2023-06-10T09:33:00;24.60;86.30
44775;DHT22;31340;51.402;0.016;2023-06-10T09:35:30;24.70;85.90
44775;DHT22;31340;51.402;0.016;2023-06-10T09:37:59;24.90;85.40
44775;DHT22;31340;51.402;0.016;2023-06-10T09:40:27;25.00;84.70
44775;DHT22;31340;51.402;0.016;2023-06-10T09:42:57;25.10;84.00
44775;DHT22;31340;51.402;0.016;2023-06-10T09:45:32;25.30;83.60
44775;DHT22;31340;51.402;0.016;2023-06-10T09:48:00;25.50;83.00
44775;DHT22;31340;51.402;0.016;2023-06-10T09:50:33;25.70;82.70
44775;DHT22;31340;51.402;0.016;2023-06-10T09:53:01;25.90;82.10
44775;DHT22;31340;51.402;0.016;2023-06-10T09:55:33;26.20;81.60
44775;DHT22;31340;51.402;0.016;2023-06-10T09:58:00;26.50;81.10
44775;DHT22;31340;51.402;0.016;2023-06-10T10:00:28;26.70;80.30
44775;DHT22;31340;51.402;0.016;2023-06-10T10:02:56;27.00;79.20
44775;DHT22;31340;51.402;0.016;2023-06-10T10:05:24;27.30;78.40
44775;DHT22;31340;51.402;0.016;2023-06-10T10:07:52;27.70;77.80
44775;DHT22;31340;51.402;0.016;2023-06-10T10:10:21;28.00;76.60
44775;DHT22;31340;51.402;0.016;2023-06-10T10:12:54;28.30;75.30
44775;DHT22;31340;51.402;0.016;2023-06-10T10:15:30;28.60;73.90
44775;DHT22;31340;51.402;0.016;2023-06-10T10:18:12;28.90;73.20
44775;DHT22;31340;51.402;0.016;2023-06-10T10:20:50;29.20;72.30
44775;DHT22;31340;51.402;0.016;2023-06-10T10:23:25;29.50;71.00
44775;DHT22;31340;51.402;0.016;2023-06-10T10:25:54;29.90;69.90
44775;DHT22;31340;51.402;0.016;2023-06-10T10:28:24;30.20;69.20
44775;DHT22;31340;51.402;0.016;2023-06-10T10:30:59;30.50;67.60
44775;DHT22;31340;51.402;0.016;2023-06-10T10:33:52;30.80;66.30
44775;DHT22;31340;51.402;0.016;2023-06-10T10:36:24;31.20;65.50
44775;DHT22;31340;51.402;0.016;2023-06-10T10:38:52;31.50;65.10
44775;DHT22;31340;51.402;0.016;2023-06-10T10:41:21;31.70;63.80
44775;DHT22;31340;51.402;0.016;2023-06-10T10:43:49;32.00;62.70
44775;DHT22;31340;51.402;0.016;2023-06-10T10:46:19;32.20;61.70
44775;DHT22;31340;51.402;0.016;2023-06-10T10:48:52;32.50;62.20
44775;DHT22;31340;51.402;0.016;2023-06-10T10:51:23;32.70;60.50
44775;DHT22;31340;51.402;0.016;2023-06-10T10:54:12;32.90;60.00
44775;DHT22;31340;51.402;0.016;2023-06-10T11:05:01;33.70;57.70
44775;DHT22;31340;51.402;0.016;2023-06-10T11:07:31;33.90;57.30
44775;DHT22;31340;51.402;0.016;2023-06-10T11:10:11;34.10;56.70
44775;DHT22;31340;51.402;0.016;2023-06-10T11:15:08;34.40;55.90
44775;DHT22;31340;51.402;0.016;2023-06-10T11:17:36;34.60;55.60
44775;DHT22;31340;51.402;0.016;2023-06-10T11:20:04;34.70;55.00
44775;DHT22;31340;51.402;0.016;2023-06-10T11:22:33;34.90;54.50
44775;DHT22;31340;51.402;0.016;2023-06-10T11:25:00;35.10;54.60
44775;DHT22;31340;51.402;0.016;2023-06-10T11:27:37;35.20;53.90
44775;DHT22;31340;51.402;0.016;2023-06-10T11:32:35;35.50;53.00
44775;DHT22;31340;51.402;0.016;2023-06-10T11:35:03;35.70;52.50
44775;DHT22;31340;51.402;0.016;2023-06-10T11:37:31;35.80;52.00
44775;DHT22;31340;51.402;0.016;2023-06-10T11:39:59;35.90;51.80
44775;DHT22;31340;51.402;0.016;2023-06-10T11:42:27;36.10;51.50
44775;DHT22;31340;51.402;0.016;2023-06-10T11:44:55;36.20;51.10
44775;DHT22;31340;51.402;0.016;2023-06-10T11:47:22;36.30;50.60
44775;DHT22;31340;51.402;0.016;2023-06-10T11:49:57;36.40;50.50
44775;DHT22;31340;51.402;0.016;2023-06-10T11:52:29;36.60;49.90
44775;DHT22;31340;51.402;0.016;2023-06-10T11:54:56;36.70;49.80
44775;DHT22;31340;51.402;0.016;2023-06-10T11:57:24;36.70;49.70
44775;DHT22;31340;51.402;0.016;2023-06-10T11:59:52;36.80;49.50
44775;DHT22;31340;51.402;0.016;2023-06-10T12:02:19;37.00;49.40
44775;DHT22;31340;51.402;0.016;2023-06-10T12:04:47;37.10;48.70
44775;DHT22;31340;51.402;0.016;2023-06-10T12:07:18;37.20;48.30
44775;DHT22;31340;51.402;0.016;2023-06-10T12:09:59;37.40;47.80
44775;DHT22;31340;51.402;0.016;2023-06-10T12:12:38;37.40;47.20
44775;DHT22;31340;51.402;0.016;2023-06-10T12:15:06;37.50;46.90
44775;DHT22;31340;51.402;0.016;2023-06-10T12:17:35;37.70;46.80
44775;DHT22;31340;51.402;0.016;2023-06-10T12:20:23;37.70;46.30
44775;DHT22;31340;51.402;0.016;2023-06-10T12:22:51;37.90;45.90
44775;DHT22;31340;51.402;0.016;2023-06-10T12:25:28;37.90;45.80
44775;DHT22;31340;51.402;0.016;2023-06-10T12:27:57;38.00;45.30
44775;DHT22;31340;51.402;0.016;2023-06-10T12:30:26;38.20;45.10
44775;DHT22;31340;51.402;0.016;2023-06-10T12:32:54;38.20;44.40
44775;DHT22;31340;51.402;0.016;2023-06-10T12:35:25;38.30;44.20
44775;DHT22;31340;51.402;0.016;2023-06-10T12:38:00;38.40;43.40
44775;DHT22;31340;51.402;0.016;2023-06-10T12:40:36;38.50;43.00
44775;DHT22;31340;51.402;0.016;2023-06-10T12:43:05;38.50;42.30
44775;DHT22;31340;51.402;0.016;2023-06-10T12:45:34;38.60;42.10
44775;DHT22;31340;51.402;0.016;2023-06-10T12:48:22;38.70;41.40
44775;DHT22;31340;51.402;0.016;2023-06-10T12:50:54;38.80;40.50
44775;DHT22;31340;51.402;0.016;2023-06-10T12:53:24;38.90;39.80
44775;DHT22;31340;51.402;0.016;2023-06-10T12:55:51;39.00;39.20
44775;DHT22;31340;51.402;0.016;2023-06-10T12:58:20;39.00;38.40
44775;DHT22;31340;51.402;0.016;2023-06-10T13:00:47;39.10;38.30
44775;DHT22;31340;51.402;0.016;2023-06-10T13:03:16;39.20;38.60
44775;DHT22;31340;51.402;0.016;2023-06-10T13:05:44;39.30;38.50
44775;DHT22;31340;51.402;0.016;2023-06-10T13:08:11;39.40;38.90
44775;DHT22;31340;51.402;0.016;2023-06-10T13:10:39;39.50;39.30
44775;DHT22;31340;51.402;0.016;2023-06-10T13:13:06;39.60;39.00
44775;DHT22;31340;51.402;0.016;2023-06-10T13:15:36;39.60;38.50
44775;DHT22;31340;51.402;0.016;2023-06-10T13:18:09;39.60;38.60
44775;DHT22;31340;51.402;0.016;2023-06-10T13:20:37;39.70;38.80
44775;DHT22;31340;51.402;0.016;2023-06-10T13:23:05;39.70;39.00
44775;DHT22;31340;51.402;0.016;2023-06-10T13:25:32;39.70;39.10
44775;DHT22;31340;51.402;0.016;2023-06-10T13:28:00;39.70;39.00
44775;DHT22;31340;51.402;0.016;2023-06-10T13:30:28;39.80;39.00
44775;DHT22;31340;51.402;0.016;2023-06-10T13:32:56;39.90;39.20
44775;DHT22;31340;51.402;0.016;2023-06-10T13:35:23;39.90;39.20
44775;DHT22;31340;51.402;0.016;2023-06-10T13:37:51;40.00;39.30
44775;DHT22;31340;51.402;0.016;2023-06-10T13:40:18;40.10;39.20
44775;DHT22;31340;51.402;0.016;2023-06-10T13:42:47;40.20;38.80
44775;DHT22;31340;51.402;0.016;2023-06-10T13:45:18;40.20;38.80
44775;DHT22;31340;51.402;0.016;2023-06-10T13:47:46;40.30;38.10
44775;DHT22;31340;51.402;0.016;2023-06-10T13:50:13;40.30;37.90
44775;DHT22;31340;51.402;0.016;2023-06-10T13:52:41;40.40;37.90
44775;DHT22;31340;51.402;0.016;2023-06-10T13:55:09;40.50;37.50
44775;DHT22;31340;51.402;0.016;2023-06-10T13:57:37;40.50;37.30
44775;DHT22;31340;51.402;0.016;2023-06-10T14:00:05;40.50;37.10
44775;DHT22;31340;51.402;0.016;2023-06-10T14:02:33;40.40;36.70
44775;DHT22;31340;51.402;0.016;2023-06-10T14:05:01;40.40;36.60
44775;DHT22;31340;51.402;0.016;2023-06-10T14:07:29;40.30;36.70
44775;DHT22;31340;51.402;0.016;2023-06-10T14:09:56;40.30;37.30
44775;DHT22;31340;51.402;0.016;2023-06-10T14:12:24;40.30;36.80
44775;DHT22;31340;51.402;0.016;2023-06-10T14:14:52;40.30;36.40
44775;DHT22;31340;51.402;0.016;2023-06-10T14:17:20;40.30;36.00
44775;DHT22;31340;51.402;0.016;2023-06-10T14:19:47;40.30;36.10
44775;DHT22;31340;51.402;0.016;2023-06-10T14:22:15;40.30;35.90
44775;DHT22;31340;51.402;0.016;2023-06-10T14:24:42;40.40;35.90
44775;DHT22;31340;51.402;0.016;2023-06-10T14:27:10;40.40;35.60
44775;DHT22;31340;51.402;0.016;2023-06-10T14:29:37;40.30;35.40
44775;DHT22;31340;51.402;0.016;2023-06-10T14:32:05;40.20;35.60
44775;DHT22;31340;51.402;0.016;2023-06-10T14:34:36;40.20;35.40
44775;DHT22;31340;51.402;0.016;2023-06-10T14:37:03;40.10;35.50
44775;DHT22;31340;51.402;0.016;2023-06-10T14:39:34;40.00;35.80
44775;DHT22;31340;51.402;0.016;2023-06-10T14:42:02;40.00;35.70
44775;DHT22;31340;51.402;0.016;2023-06-10T14:44:30;39.90;35.70
44775;DHT22;31340;51.402;0.016;2023-06-10T14:46:58;39.90;35.90
44775;DHT22;31340;51.402;0.016;2023-06-10T14:49:26;39.80;35.70
44775;DHT22;31340;51.402;0.016;2023-06-10T14:51:53;39.70;35.60
44775;DHT22;31340;51.402;0.016;2023-06-10T14:54:21;39.50;35.60
44775;DHT22;31340;51.402;0.016;2023-06-10T14:56:48;39.50;35.40
44775;DHT22;31340;51.402;0.016;2023-06-10T14:59:16;39.40;35.60
44775;DHT22;31340;51.402;0.016;2023-06-10T15:01:43;39.40;35.50
44775;DHT22;31340;51.402;0.016;2023-06-10T15:04:11;39.40;36.50
44775;DHT22;31340;51.402;0.016;2023-06-10T15:06:39;39.40;35.80
44775;DHT22;31340;51.402;0.016;2023-06-10T15:09:07;39.40;36.50
44775;DHT22;31340;51.402;0.016;2023-06-10T15:11:35;39.40;35.80
44775;DHT22;31340;51.402;0.016;2023-06-10T15:14:02;39.40;35.60
44775;DHT22;31340;51.402;0.016;2023-06-10T15:16:30;39.40;35.70
44775;DHT22;31340;51.402;0.016;2023-06-10T15:18:57;39.30;35.80
44775;DHT22;31340;51.402;0.016;2023-06-10T15:21:25;39.40;35.70
44775;DHT22;31340;51.402;0.016;2023-06-10T15:23:52;39.30;35.70
44775;DHT22;31340;51.402;0.016;2023-06-10T15:26:20;39.30;35.90
44775;DHT22;31340;51.402;0.016;2023-06-10T15:28:48;39.30;35.90
44775;DHT22;31340;51.402;0.016;2023-06-10T15:31:16;39.30;36.10
44775;DHT22;31340;51.402;0.016;2023-06-10T15:33:44;39.20;35.80
44775;DHT22;31340;51.402;0.016;2023-06-10T15:36:14;39.30;35.70
44775;DHT22;31340;51.402;0.016;2023-06-10T15:38:41;39.20;35.60
44775;DHT22;31340;51.402;0.016;2023-06-10T15:41:09;39.20;35.90
44775;DHT22;31340;51.402;0.016;2023-06-10T15:43:36;39.10;35.90
44775;DHT22;31340;51.402;0.016;2023-06-10T15:46:04;38.90;35.50
44775;DHT22;31340;51.402;0.016;2023-06-10T15:48:32;38.80;35.60
44775;DHT22;31340;51.402;0.016;2023-06-10T15:50:59;38.70;36.00
44775;DHT22;31340;51.402;0.016;2023-06-10T15:53:27;38.60;35.60
44775;DHT22;31340;51.402;0.016;2023-06-10T15:55:55;38.50;35.50
44775;DHT22;31340;51.402;0.016;2023-06-10T15:58:22;38.30;35.70